createdAt,value
2023-04-19T00:00:48.040Z,10.89
2023-04-19T00:01:48.061Z,10.90
2023-04-19T00:02:48.101Z,10.92
2023-04-19T00:03:48.343Z,10.86
2023-04-19T00:04:48.116Z,10.86
2023-04-19T00:05:47.995Z,10.79
2023-04-19T00:06:47.979Z,10.90
2023-04-19T00:07:47.956Z,10.81
2023-04-19T00:08:47.954Z,10.82
2023-04-19T00:09:47.928Z,10.78
2023-04-19T00:10:47.921Z,10.76
2023-04-19T00:11:47.916Z,10.74
2023-04-19T00:12:47.913Z,10.71
2023-04-19T00:13:47.888Z,10.67
2023-04-19T00:14:47.928Z,10.72
2023-04-19T00:15:47.890Z,10.69
2023-04-19T00:16:47.901Z,10.71
2023-04-19T00:17:47.885Z,10.53
2023-04-19T00:18:47.837Z,10.60
2023-04-19T00:19:47.863Z,10.54
2023-04-19T00:20:47.828Z,10.54
2023-04-19T00:21:47.796Z,10.51
2023-04-19T00:22:47.787Z,10.53
2023-04-19T00:23:47.791Z,10.53
2023-04-19T00:24:47.763Z,10.34
2023-04-19T00:25:47.753Z,10.44
2023-04-19T00:26:47.752Z,10.37
2023-04-19T00:27:47.727Z,10.38
2023-04-19T00:28:47.721Z,10.42
2023-04-19T00:29:47.721Z,10.40
2023-04-19T00:30:47.717Z,10.42
2023-04-19T00:31:47.690Z,10.37
2023-04-19T00:32:47.727Z,10.38
2023-04-19T00:33:47.658Z,10.37
2023-04-19T00:34:47.650Z,10.38
2023-04-19T00:35:47.664Z,10.35
2023-04-19T00:36:47.642Z,10.34
2023-04-19T00:37:47.624Z,10.33
2023-04-19T00:38:47.604Z,10.33
2023-04-19T00:39:47.599Z,10.35
2023-04-19T00:40:47.597Z,10.28
2023-04-19T00:41:47.571Z,10.31
2023-04-19T00:42:47.576Z,10.33
2023-04-19T00:43:47.548Z,10.16
2023-04-19T00:44:47.552Z,10.22
2023-04-19T00:45:47.546Z,10.22
2023-04-19T00:46:47.571Z,10.19
2023-04-19T00:47:47.544Z,10.15
2023-04-19T00:48:47.491Z,10.30
2023-04-19T00:49:47.484Z,10.16
2023-04-19T00:50:47.474Z,10.19
2023-04-19T00:51:47.493Z,10.12
2023-04-19T00:52:47.470Z,10.15
2023-04-19T00:53:47.431Z,10.22
2023-04-19T00:54:47.428Z,10.15
2023-04-19T00:55:47.421Z,10.15
2023-04-19T00:56:47.401Z,10.15
2023-04-19T00:57:47.398Z,10.15
2023-04-19T00:58:47.390Z,10.17
2023-04-19T00:59:47.364Z,10.16
2023-04-19T01:00:47.367Z,10.05
2023-04-19T01:01:47.419Z,10.04
2023-04-19T01:02:47.484Z,10.10
2023-04-19T01:03:47.495Z,10.04
2023-04-19T01:04:47.313Z,9.98
2023-04-19T01:05:47.298Z,10.04
2023-04-19T01:06:47.309Z,9.99
2023-04-19T01:07:47.315Z,10.10
2023-04-19T01:08:47.265Z,10.05
2023-04-19T01:09:47.299Z,10.02
2023-04-19T01:10:47.244Z,10.20
2023-04-19T01:11:47.243Z,10.09
2023-04-19T01:12:47.230Z,10.15
2023-04-19T01:13:47.230Z,10.15
2023-04-19T01:14:47.202Z,10.07
2023-04-19T01:15:47.212Z,10.02
2023-04-19T01:16:47.190Z,10.07
2023-04-19T01:17:47.210Z,10.10
2023-04-19T01:18:47.161Z,10.04
2023-04-19T01:19:47.160Z,10.01
2023-04-19T01:20:47.138Z,10.19
2023-04-19T01:21:47.125Z,10.12
2023-04-19T01:22:47.116Z,10.05
2023-04-19T01:23:47.118Z,10.16
2023-04-19T01:24:47.092Z,10.12
2023-04-19T01:25:47.102Z,10.02
2023-04-19T01:26:47.068Z,10.10
2023-04-19T01:27:47.053Z,10.07
2023-04-19T01:28:47.051Z,10.07
2023-04-19T01:29:47.031Z,10.04
2023-04-19T01:30:47.020Z,10.05
2023-04-19T01:31:47.089Z,10.10
2023-04-19T01:32:47.048Z,10.01
2023-04-19T01:33:46.982Z,10.05
2023-04-19T01:34:46.985Z,10.07
2023-04-19T01:35:46.958Z,10.09
2023-04-19T01:36:46.968Z,9.98
2023-04-19T01:37:46.949Z,9.99
2023-04-19T01:38:46.926Z,10.02
2023-04-19T01:39:46.950Z,10.05
2023-04-19T01:40:46.913Z,10.09
2023-04-19T01:41:46.900Z,9.99
2023-04-19T01:42:46.891Z,10.04
2023-04-19T01:43:46.881Z,10.04
2023-04-19T01:44:46.885Z,9.91
2023-04-19T01:45:46.851Z,9.97
2023-04-19T01:46:46.903Z,9.84
2023-04-19T01:47:46.886Z,9.89
2023-04-19T01:48:46.817Z,9.91
2023-04-19T01:49:46.804Z,9.82
2023-04-19T01:50:46.805Z,9.84
2023-04-19T01:51:46.779Z,9.79
2023-04-19T01:52:46.783Z,9.79
2023-04-19T01:53:46.761Z,9.79
2023-04-19T01:54:46.766Z,9.74
2023-04-19T01:55:46.755Z,9.68
2023-04-19T01:56:46.727Z,9.68
2023-04-19T01:57:46.724Z,9.69
2023-04-19T01:58:46.715Z,9.58
2023-04-19T01:59:46.692Z,9.59
2023-04-19T02:00:46.710Z,9.56
2023-04-19T02:01:46.675Z,9.56
2023-04-19T02:02:46.742Z,9.55
2023-04-19T02:03:46.975Z,9.40
2023-04-19T02:04:46.641Z,9.43
2023-04-19T02:05:46.627Z,9.44
2023-04-19T02:06:46.612Z,9.47
2023-04-19T02:07:46.598Z,9.44
2023-04-19T02:08:46.611Z,9.44
2023-04-19T02:09:46.588Z,9.37
2023-04-19T02:10:46.570Z,9.32
2023-04-19T02:11:46.589Z,9.34
2023-04-19T02:12:46.544Z,9.29
2023-04-19T02:13:46.535Z,9.32
2023-04-19T02:14:46.553Z,9.29
2023-04-19T02:15:46.536Z,9.25
2023-04-19T02:16:46.546Z,9.31
2023-04-19T02:17:46.512Z,9.28
2023-04-19T02:18:46.505Z,9.36
2023-04-19T02:19:46.470Z,9.32
2023-04-19T02:20:46.456Z,9.31
2023-04-19T02:21:46.450Z,9.28
2023-04-19T02:22:46.442Z,9.36
2023-04-19T02:23:46.430Z,9.34
2023-04-19T02:24:46.428Z,9.32
2023-04-19T02:25:46.395Z,9.29
2023-04-19T02:26:46.405Z,9.25
2023-04-19T02:27:46.398Z,9.31
2023-04-19T02:28:46.381Z,9.23
2023-04-19T02:29:46.351Z,9.28
2023-04-19T02:30:46.349Z,9.26
2023-04-19T02:31:46.490Z,9.36
2023-04-19T02:32:46.353Z,9.28
2023-04-19T02:33:46.314Z,9.22
2023-04-19T02:34:46.305Z,9.23
2023-04-19T02:35:46.304Z,9.29
2023-04-19T02:36:46.287Z,9.32
2023-04-19T02:37:46.268Z,9.25
2023-04-19T02:38:46.256Z,9.31
2023-04-19T02:39:46.259Z,9.28
2023-04-19T02:40:46.233Z,9.32
2023-04-19T02:41:46.233Z,9.28
2023-04-19T02:42:46.220Z,9.22
2023-04-19T02:43:46.220Z,9.29
2023-04-19T02:44:46.188Z,9.32
2023-04-19T02:45:46.247Z,9.37
2023-04-19T02:46:46.173Z,9.28
2023-04-19T02:47:46.164Z,9.18
2023-04-19T02:48:46.156Z,9.19
2023-04-19T02:49:46.121Z,9.21
2023-04-19T02:50:46.122Z,9.29
2023-04-19T02:51:46.120Z,9.32
2023-04-19T02:52:46.094Z,9.32
2023-04-19T02:53:46.078Z,9.29
2023-04-19T02:54:46.092Z,9.28
2023-04-19T02:55:46.079Z,9.25
2023-04-19T02:56:46.051Z,9.31
2023-04-19T02:57:46.034Z,9.25
2023-04-19T02:58:46.041Z,9.23
2023-04-19T02:59:46.041Z,9.28
2023-04-19T03:00:46.012Z,9.32
2023-04-19T03:01:46.098Z,9.37
2023-04-19T03:02:46.103Z,9.36
2023-04-19T03:03:46.090Z,9.39
2023-04-19T03:04:45.966Z,9.46
2023-04-19T03:05:45.953Z,9.43
2023-04-19T03:06:45.982Z,9.43
2023-04-19T03:07:45.964Z,9.48
2023-04-19T03:08:45.927Z,9.48
2023-04-19T03:09:45.946Z,9.54
2023-04-19T03:10:45.963Z,9.58
2023-04-19T03:11:45.988Z,9.64
2023-04-19T03:12:45.936Z,9.55
2023-04-19T03:13:45.895Z,9.54
2023-04-19T03:14:45.855Z,9.59
2023-04-19T03:15:45.869Z,9.59
2023-04-19T03:16:45.820Z,9.56
2023-04-19T03:17:45.842Z,9.73
2023-04-19T03:18:47.950Z,9.69
2023-04-19T03:19:45.812Z,9.68
2023-04-19T03:20:45.774Z,9.68
2023-04-19T03:21:45.758Z,9.66
2023-04-19T03:22:45.759Z,9.76
2023-04-19T03:23:45.738Z,9.73
2023-04-19T03:24:45.755Z,9.77
2023-04-19T03:25:45.716Z,9.74
2023-04-19T03:26:45.706Z,9.76
2023-04-19T03:27:45.718Z,9.83
2023-04-19T03:28:45.685Z,9.80
2023-04-19T03:29:47.300Z,9.80
2023-04-19T03:30:45.667Z,9.79
2023-04-19T03:31:45.717Z,9.79
2023-04-19T03:32:45.676Z,9.79
2023-04-19T03:33:45.621Z,9.77
2023-04-19T03:34:45.622Z,9.80
2023-04-19T03:35:45.649Z,9.82
2023-04-19T03:36:45.592Z,9.86
2023-04-19T03:37:45.580Z,9.83
2023-04-19T03:38:45.575Z,9.82
2023-04-19T03:39:45.550Z,9.80
2023-04-19T03:40:45.544Z,9.77
2023-04-19T03:41:45.536Z,9.79
2023-04-19T03:42:45.524Z,9.83
2023-04-19T03:43:45.501Z,9.83
2023-04-19T03:44:45.502Z,9.80
2023-04-19T03:45:45.495Z,9.84
2023-04-19T03:46:45.532Z,9.80
2023-04-19T03:47:45.644Z,9.89
2023-04-19T03:48:45.451Z,9.79
2023-04-19T03:49:45.435Z,9.82
2023-04-19T03:50:45.431Z,9.74
2023-04-19T03:51:45.418Z,9.74
2023-04-19T03:52:45.406Z,9.77
2023-04-19T03:53:45.392Z,9.74
2023-04-19T03:54:45.390Z,9.68
2023-04-19T03:55:45.394Z,9.66
2023-04-19T03:56:45.362Z,9.69
2023-04-19T03:57:45.357Z,9.68
2023-04-19T03:58:45.334Z,9.61
2023-04-19T03:59:45.323Z,9.65
2023-04-19T04:00:45.328Z,9.72
2023-04-19T04:01:45.343Z,9.62
2023-04-19T04:02:45.475Z,9.62
2023-04-19T04:03:45.638Z,9.54
2023-04-19T04:04:45.525Z,9.48
2023-04-19T04:05:45.268Z,9.48
2023-04-19T04:06:45.244Z,9.48
2023-04-19T04:07:45.232Z,9.46
2023-04-19T04:08:45.231Z,9.40
2023-04-19T04:09:45.212Z,9.47
2023-04-19T04:10:45.198Z,9.46
2023-04-19T04:11:45.202Z,9.37
2023-04-19T04:12:45.182Z,9.47
2023-04-19T04:13:45.164Z,9.40
2023-04-19T04:14:45.160Z,9.43
2023-04-19T04:15:45.149Z,9.36
2023-04-19T04:16:45.153Z,9.34
2023-04-19T04:17:45.172Z,9.29
2023-04-19T04:18:45.104Z,9.26
2023-04-19T04:19:45.217Z,9.31
2023-04-19T04:20:45.100Z,9.28
2023-04-19T04:21:45.082Z,9.39
2023-04-19T04:22:45.056Z,9.29
2023-04-19T04:23:45.049Z,9.31
2023-04-19T04:24:45.036Z,9.34
2023-04-19T04:25:45.040Z,9.39
2023-04-19T04:26:45.032Z,9.39
2023-04-19T04:27:45.027Z,9.37
2023-04-19T04:28:44.996Z,9.34
2023-04-19T04:29:44.997Z,9.29
2023-04-19T04:30:44.985Z,9.31
2023-04-19T04:31:45.076Z,9.31
2023-04-19T04:32:45.086Z,9.31
2023-04-19T04:33:44.953Z,9.29
2023-04-19T04:34:44.938Z,9.32
2023-04-19T04:35:44.962Z,9.29
2023-04-19T04:36:44.921Z,9.28
2023-04-19T04:37:44.917Z,9.22
2023-04-19T04:38:44.912Z,9.23
2023-04-19T04:39:44.898Z,9.21
2023-04-19T04:40:44.879Z,9.19
2023-04-19T04:41:44.863Z,9.10
2023-04-19T04:42:44.861Z,9.13
2023-04-19T04:43:44.846Z,9.03
2023-04-19T04:44:44.853Z,9.04
2023-04-19T04:45:44.885Z,8.95
2023-04-19T04:46:44.813Z,8.95
2023-04-19T04:47:44.881Z,8.97
2023-04-19T04:48:44.796Z,8.85
2023-04-19T04:49:44.783Z,8.85
2023-04-19T04:50:44.784Z,8.84
2023-04-19T04:51:44.778Z,8.82
2023-04-19T04:52:44.746Z,8.87
2023-04-19T04:53:44.746Z,8.84
2023-04-19T04:54:44.726Z,8.84
2023-04-19T04:55:44.712Z,8.88
2023-04-19T04:56:44.808Z,8.87
2023-04-19T04:57:44.709Z,8.92
2023-04-19T04:58:44.677Z,8.87
2023-04-19T04:59:44.673Z,8.88
2023-04-19T05:00:44.660Z,8.87
2023-04-19T05:01:44.734Z,8.84
2023-04-19T05:02:44.743Z,8.95
2023-04-19T05:03:44.667Z,8.84
2023-04-19T05:04:44.735Z,8.82
2023-04-19T05:05:45.314Z,8.82
2023-04-19T05:06:44.604Z,8.84
2023-04-19T05:07:44.645Z,8.87
2023-04-19T05:08:44.578Z,8.85
2023-04-19T05:09:44.556Z,8.81
2023-04-19T05:10:44.541Z,8.78
2023-04-19T05:11:44.531Z,8.76
2023-04-19T05:12:44.522Z,8.71
2023-04-19T05:13:44.527Z,8.73
2023-04-19T05:14:44.519Z,8.70
2023-04-19T05:15:44.487Z,8.73
2023-04-19T05:16:44.645Z,8.70
2023-04-19T05:17:44.551Z,8.63
2023-04-19T05:18:44.468Z,8.74
2023-04-19T05:19:44.485Z,8.71
2023-04-19T05:20:44.440Z,8.73
2023-04-19T05:21:44.416Z,8.74
2023-04-19T05:22:44.405Z,8.69
2023-04-19T05:23:44.418Z,8.67
2023-04-19T05:24:44.400Z,8.64
2023-04-19T05:25:44.392Z,8.58
2023-04-19T05:26:44.366Z,8.51
2023-04-19T05:27:44.353Z,8.49
2023-04-19T05:28:44.347Z,8.48
2023-04-19T05:29:44.349Z,8.46
2023-04-19T05:30:44.323Z,8.49
2023-04-19T05:31:44.357Z,8.44
2023-04-19T05:32:51.436Z,8.41
2023-04-19T05:33:44.301Z,8.42
2023-04-19T05:34:44.268Z,8.49
2023-04-19T05:35:44.281Z,8.49
2023-04-19T05:36:44.256Z,8.53
2023-04-19T05:37:44.241Z,8.60
2023-04-19T05:38:44.227Z,8.52
2023-04-19T05:39:44.798Z,8.46
2023-04-19T05:40:44.215Z,8.28
2023-04-19T05:41:44.194Z,8.34
2023-04-19T05:42:44.214Z,8.36
2023-04-19T05:43:44.185Z,8.36
2023-04-19T05:44:44.163Z,8.38
2023-04-19T05:45:44.201Z,8.42
2023-04-19T05:46:44.152Z,8.42
2023-04-19T05:47:44.161Z,8.44
2023-04-19T05:48:44.133Z,8.48
2023-04-19T05:49:44.110Z,8.56
2023-04-19T05:50:44.117Z,8.51
2023-04-19T05:51:44.087Z,8.66
2023-04-19T05:52:44.071Z,8.78
2023-04-19T05:53:44.078Z,8.85
2023-04-19T05:54:44.056Z,9.10
2023-04-19T05:55:44.066Z,9.28
2023-04-19T05:56:44.044Z,9.50
2023-04-19T05:57:44.024Z,9.68
2023-04-19T05:58:44.041Z,9.61
2023-04-19T05:59:43.999Z,9.86
2023-04-19T06:00:43.998Z,10.07
2023-04-19T06:01:44.060Z,10.41
2023-04-19T06:02:44.242Z,10.51
2023-04-19T06:03:44.148Z,10.53
2023-04-19T06:04:44.223Z,10.74
2023-04-19T06:05:44.003Z,10.93
2023-04-19T06:06:43.958Z,11.08
2023-04-19T06:07:54.679Z,11.10
2023-04-19T06:08:44.890Z,11.04
2023-04-19T06:09:43.918Z,10.99
2023-04-19T06:10:53.265Z,11.04
2023-04-19T06:11:50.712Z,11.15
2023-04-19T06:12:44.862Z,11.30
2023-04-19T06:13:43.834Z,11.26
2023-04-19T06:14:43.822Z,11.41
2023-04-19T06:15:43.835Z,11.59
2023-04-19T06:16:43.817Z,11.80
2023-04-19T06:17:43.806Z,11.81
2023-04-19T06:18:43.778Z,11.65
2023-04-19T06:19:43.771Z,11.68
2023-04-19T06:20:43.759Z,11.70
2023-04-19T06:21:43.751Z,11.51
2023-04-19T06:22:43.754Z,11.52
2023-04-19T06:23:43.734Z,11.77
2023-04-19T06:24:43.711Z,12.02
2023-04-19T06:25:43.702Z,12.13
2023-04-19T06:26:43.708Z,12.18
2023-04-19T06:27:43.709Z,12.13
2023-04-19T06:28:43.674Z,12.02
2023-04-19T06:29:43.654Z,11.97
2023-04-19T06:30:43.638Z,12.04
2023-04-19T06:31:43.662Z,12.04
2023-04-19T06:32:43.684Z,12.00
2023-04-19T06:33:43.614Z,11.81
2023-04-19T06:34:43.606Z,11.75
2023-04-19T06:35:43.587Z,12.02
2023-04-19T06:36:43.587Z,11.86
2023-04-19T06:37:43.572Z,11.62
2023-04-19T06:38:43.553Z,11.70
2023-04-19T06:39:43.563Z,11.73
2023-04-19T06:40:43.526Z,11.60
2023-04-19T06:41:43.519Z,11.47
2023-04-19T06:42:43.501Z,11.44
2023-04-19T06:43:43.525Z,11.23
2023-04-19T06:44:43.493Z,11.18
2023-04-19T06:45:43.495Z,11.25
2023-04-19T06:46:43.454Z,11.37
2023-04-19T06:47:43.476Z,11.54
2023-04-19T06:48:43.437Z,11.75
2023-04-19T06:49:43.430Z,11.54
2023-04-19T06:50:43.448Z,11.48
2023-04-19T06:51:43.412Z,11.43
2023-04-19T06:52:43.388Z,11.15
2023-04-19T06:53:43.382Z,11.14
2023-04-19T06:54:43.377Z,11.26
2023-04-19T06:55:43.358Z,11.52
2023-04-19T06:56:43.350Z,11.47
2023-04-19T06:57:43.361Z,11.63
2023-04-19T06:58:43.325Z,11.83
2023-04-19T06:59:43.336Z,12.24
2023-04-19T07:00:43.307Z,12.32
2023-04-19T07:01:43.505Z,12.18
2023-04-19T07:02:43.413Z,12.29
2023-04-19T07:03:43.407Z,12.43
2023-04-19T07:04:43.406Z,12.75
2023-04-19T07:05:43.251Z,13.16
2023-04-19T07:06:43.245Z,13.28
2023-04-19T07:07:43.239Z,12.95
2023-04-19T07:09:44.205Z,12.93
2023-04-19T07:10:43.186Z,13.03
2023-04-19T07:11:43.178Z,13.00
2023-04-19T07:12:43.201Z,12.93
2023-04-19T07:13:43.168Z,12.75
2023-04-19T07:14:43.140Z,12.67
2023-04-19T07:15:43.301Z,12.65
2023-04-19T07:16:43.122Z,12.72
2023-04-19T07:17:43.140Z,12.47
2023-04-19T07:18:43.111Z,12.47
2023-04-19T07:19:43.090Z,12.36
2023-04-19T07:20:43.070Z,12.18
2023-04-19T07:21:43.061Z,12.02
2023-04-19T07:22:43.046Z,11.87
2023-04-19T07:23:43.056Z,11.80
2023-04-19T07:24:43.027Z,11.84
2023-04-19T07:25:43.022Z,11.97
2023-04-19T07:26:43.018Z,12.00
2023-04-19T07:27:42.989Z,11.99
2023-04-19T07:28:42.993Z,11.73
2023-04-19T07:29:42.990Z,11.77
2023-04-19T07:30:42.979Z,11.87
2023-04-19T07:31:43.038Z,12.04
2023-04-19T07:32:42.986Z,12.06
2023-04-19T07:33:42.924Z,12.04
2023-04-19T07:34:42.915Z,12.25
2023-04-19T07:35:42.938Z,12.40
2023-04-19T07:36:42.886Z,12.42
2023-04-19T07:37:42.899Z,12.57
2023-04-19T07:38:42.861Z,12.60
2023-04-19T07:39:42.865Z,12.65
2023-04-19T07:40:42.848Z,12.67
2023-04-19T07:41:42.852Z,12.73
2023-04-19T07:42:42.815Z,12.80
2023-04-19T07:43:42.814Z,12.78
2023-04-19T07:44:42.793Z,12.79
2023-04-19T07:45:42.810Z,12.79
2023-04-19T07:46:42.846Z,12.85
2023-04-19T07:47:42.951Z,13.00
2023-04-19T07:48:42.753Z,13.12
2023-04-19T07:49:42.755Z,13.00
2023-04-19T07:50:42.728Z,12.87
2023-04-19T07:51:42.724Z,12.60
2023-04-19T07:52:42.726Z,12.42
2023-04-19T07:53:42.698Z,12.50
2023-04-19T07:54:42.722Z,12.62
2023-04-19T07:55:42.676Z,12.64
2023-04-19T07:56:42.667Z,12.45
2023-04-19T07:57:42.652Z,12.40
2023-04-19T07:58:43.073Z,12.42
2023-04-19T07:59:42.647Z,12.29
2023-04-19T08:00:42.624Z,12.49
2023-04-19T08:01:42.715Z,12.57
2023-04-19T08:02:42.860Z,12.78
2023-04-19T08:03:42.826Z,13.03
2023-04-19T08:04:42.935Z,12.94
2023-04-19T08:05:42.667Z,12.93
2023-04-19T08:06:42.562Z,13.01
2023-04-19T08:07:42.549Z,12.94
2023-04-19T08:08:42.556Z,12.83
2023-04-19T08:09:42.623Z,12.67
2023-04-19T08:10:42.525Z,12.58
2023-04-19T08:11:42.493Z,12.40
2023-04-19T08:12:50.688Z,12.54
2023-04-19T08:13:51.577Z,12.61
2023-04-19T08:14:59.143Z,12.61
2023-04-19T08:17:19.181Z,12.68
2023-04-19T08:17:43.991Z,12.78
2023-04-19T08:18:42.421Z,12.87
2023-04-19T08:19:42.517Z,13.08
2023-04-19T08:20:42.400Z,13.16
2023-04-19T08:21:42.403Z,13.18
2023-04-19T08:22:42.389Z,13.15
2023-04-19T08:23:48.200Z,13.28
2023-04-19T08:24:43.355Z,13.39
2023-04-19T08:25:42.348Z,13.44
2023-04-19T08:26:42.333Z,13.46
2023-04-19T08:27:42.338Z,13.60
2023-04-19T08:28:42.321Z,13.68
2023-04-19T08:29:42.299Z,13.78
2023-04-19T08:30:42.282Z,13.79
2023-04-19T08:31:42.315Z,13.67
2023-04-19T08:32:42.372Z,13.71
2023-04-19T08:33:42.262Z,13.54
2023-04-19T08:34:42.242Z,13.54
2023-04-19T08:35:42.289Z,13.71
2023-04-19T08:36:51.844Z,13.81
2023-04-19T08:37:43.216Z,13.86
2023-04-19T08:38:44.719Z,13.95
2023-04-19T08:39:43.208Z,13.83
2023-04-19T08:40:42.183Z,13.65
2023-04-19T08:41:42.196Z,13.54
2023-04-19T08:42:42.176Z,13.57
2023-04-19T08:43:42.148Z,13.49
2023-04-19T08:44:51.013Z,13.52
2023-04-19T08:45:43.165Z,13.70
2023-04-19T08:46:42.119Z,13.75
2023-04-19T08:47:52.487Z,13.86
2023-04-19T08:48:43.128Z,13.90
2023-04-19T08:49:43.373Z,14.08
2023-04-19T08:50:55.805Z,14.30
2023-04-19T08:51:43.119Z,14.36
2023-04-19T08:52:54.253Z,14.35
2023-04-19T08:53:43.032Z,14.43
2023-04-19T08:54:42.018Z,14.58
2023-04-19T08:55:50.995Z,14.59
2023-04-19T08:56:42.994Z,14.73
2023-04-19T08:57:41.987Z,14.41
2023-04-19T08:59:41.955Z,14.36
2023-04-19T09:00:41.953Z,14.22
2023-04-19T09:01:44.364Z,14.15
2023-04-19T09:02:42.051Z,14.10
2023-04-19T09:03:56.045Z,14.15
2023-04-19T09:04:43.249Z,14.29
2023-04-19T09:05:42.263Z,14.37
2023-04-19T09:06:42.069Z,14.20
2023-04-19T09:07:41.971Z,14.28
2023-04-19T09:08:41.852Z,14.45
2023-04-19T09:09:52.002Z,14.62
2023-04-19T09:10:42.845Z,14.69
2023-04-19T09:11:41.822Z,14.79
2023-04-19T09:12:41.834Z,14.79
2023-04-19T09:13:41.808Z,14.72
2023-04-19T09:14:47.425Z,14.73
2023-04-19T09:15:42.819Z,14.82
2023-04-19T09:16:41.760Z,14.91
2023-04-19T09:17:41.787Z,14.84
2023-04-19T09:18:53.293Z,14.89
2023-04-19T09:19:42.726Z,14.73
2023-04-19T09:20:41.719Z,14.85
2023-04-19T09:21:41.718Z,14.72
2023-04-19T09:22:41.699Z,14.47
2023-04-19T09:23:41.797Z,14.60
2023-04-19T09:25:55.209Z,14.54
2023-04-19T09:26:42.666Z,14.59
2023-04-19T09:27:41.636Z,14.68
2023-04-19T09:28:41.630Z,14.70
2023-04-19T09:29:41.635Z,14.85
2023-04-19T09:30:58.094Z,14.97
2023-04-19T09:31:50.625Z,15.18
2023-04-19T09:32:42.679Z,15.22
2023-04-19T09:33:41.673Z,15.22
2023-04-19T09:34:41.558Z,15.02
2023-04-19T09:35:41.551Z,15.21
2023-04-19T09:36:41.554Z,15.21
2023-04-19T09:38:42.509Z,15.33
2023-04-19T09:39:41.559Z,15.46
2023-04-19T09:40:41.489Z,15.57
2023-04-19T09:41:43.230Z,15.57
2023-04-19T09:42:58.817Z,15.46
2023-04-19T09:45:12.509Z,15.49
2023-04-19T09:45:42.435Z,15.54
2023-04-19T09:46:41.447Z,15.36
2023-04-19T09:47:41.455Z,15.42
2023-04-19T09:48:41.411Z,15.55
2023-04-19T09:49:48.857Z,15.73
2023-04-19T09:50:54.598Z,15.84
2023-04-19T09:51:42.375Z,15.77
2023-04-19T09:52:41.347Z,15.68
2023-04-19T09:53:41.404Z,15.70
2023-04-19T09:54:41.331Z,15.94
2023-04-19T09:55:48.935Z,15.94
2023-04-19T09:56:42.302Z,15.90
2023-04-19T09:57:41.289Z,15.76
2023-04-19T09:58:50.119Z,15.86
2023-04-19T09:59:42.294Z,15.86
2023-04-19T10:00:47.748Z,15.92
2023-04-19T10:01:42.270Z,15.98
2023-04-19T10:02:41.336Z,16.04
2023-04-19T10:03:41.523Z,15.97
2023-04-19T10:04:59.505Z,15.75
2023-04-19T10:05:42.393Z,15.73
2023-04-19T10:07:42.244Z,15.72
2023-04-19T10:08:41.175Z,15.73
2023-04-19T10:09:51.639Z,15.70
2023-04-19T10:10:42.899Z,15.77
2023-04-19T10:11:42.960Z,15.83
2023-04-19T10:13:04.083Z,15.88
2023-04-19T10:13:42.106Z,15.92
2023-04-19T10:14:41.112Z,15.86
2023-04-19T10:15:50.536Z,15.86
2023-04-19T10:16:42.114Z,15.90
2023-04-19T10:17:41.099Z,15.97
2023-04-19T10:18:41.073Z,16.13
2023-04-19T10:19:41.044Z,16.29
2023-04-19T10:20:41.058Z,16.16
2023-04-19T10:21:41.020Z,16.01
2023-04-19T10:22:41.029Z,16.08
2023-04-19T10:23:41.001Z,15.84
2023-04-19T10:24:43.336Z,15.76
2023-04-19T10:25:40.977Z,15.76
2023-04-19T10:26:40.969Z,15.86
2023-04-19T10:27:41.122Z,16.10
2023-04-19T10:28:40.943Z,16.12
2023-04-19T10:29:40.948Z,15.98
2023-04-19T10:30:40.976Z,15.90
2023-04-19T10:31:40.964Z,15.88
2023-04-19T10:32:40.917Z,15.67
2023-04-19T10:33:40.904Z,15.76
2023-04-19T10:34:40.876Z,15.72
2023-04-19T10:35:40.869Z,15.91
2023-04-19T10:36:40.864Z,15.88
2023-04-19T10:37:40.857Z,15.77
2023-04-19T10:38:40.828Z,15.75
2023-04-19T10:39:40.819Z,15.75
2023-04-19T10:40:40.861Z,15.95
2023-04-19T10:41:40.801Z,15.92
2023-04-19T10:42:40.782Z,15.97
2023-04-19T10:43:40.900Z,16.13
2023-04-19T10:44:40.771Z,16.29
2023-04-19T10:45:40.771Z,16.43
2023-04-19T10:46:40.870Z,16.54
2023-04-19T10:47:40.740Z,16.54
2023-04-19T10:48:40.741Z,16.39
2023-04-19T10:49:40.709Z,16.28
2023-04-19T10:50:40.789Z,16.38
2023-04-19T10:51:40.676Z,16.29
2023-04-19T10:52:40.673Z,16.28
2023-04-19T10:53:40.661Z,16.35
2023-04-19T10:54:40.652Z,16.38
2023-04-19T10:55:40.627Z,16.47
2023-04-19T10:56:40.621Z,16.50
2023-04-19T10:57:40.608Z,16.29
2023-04-19T10:58:40.617Z,16.42
2023-04-19T10:59:40.624Z,16.51
2023-04-19T11:00:40.642Z,16.50
2023-04-19T11:01:40.936Z,16.43
2023-04-19T11:02:40.651Z,16.38
2023-04-19T11:03:40.718Z,16.51
2023-04-19T11:04:40.683Z,16.51
2023-04-19T11:05:40.530Z,16.28
2023-04-19T11:06:40.510Z,16.26
2023-04-19T11:07:40.492Z,16.21
2023-04-19T11:08:40.487Z,16.23
2023-04-19T11:09:40.480Z,16.32
2023-04-19T11:10:40.532Z,16.47
2023-04-19T11:11:40.469Z,16.66
2023-04-19T11:12:40.437Z,16.86
2023-04-19T11:13:40.424Z,17.01
2023-04-19T11:14:40.416Z,17.14
2023-04-19T11:15:40.581Z,16.90
2023-04-19T11:16:46.011Z,16.76
2023-04-19T11:17:41.410Z,16.51
2023-04-19T11:18:40.372Z,16.53
2023-04-19T11:19:40.385Z,16.42
2023-04-19T11:20:40.415Z,16.42
2023-04-19T11:21:40.343Z,16.53
2023-04-19T11:22:40.351Z,16.64
2023-04-19T11:23:40.311Z,16.38
2023-04-19T11:24:40.304Z,16.32
2023-04-19T11:25:40.288Z,16.43
2023-04-19T11:26:40.292Z,16.32
2023-04-19T11:27:40.272Z,16.43
2023-04-19T11:28:40.264Z,16.41
2023-04-19T11:29:40.266Z,16.31
2023-04-19T11:30:40.264Z,16.28
2023-04-19T11:31:40.280Z,16.36
2023-04-19T11:32:40.254Z,16.35
2023-04-19T11:33:47.329Z,16.38
2023-04-19T11:34:40.193Z,16.16
2023-04-19T11:35:40.171Z,15.84
2023-04-19T11:36:40.175Z,15.83
2023-04-19T11:37:40.202Z,16.05
2023-04-19T11:38:40.150Z,16.36
2023-04-19T11:39:40.127Z,16.43
2023-04-19T11:40:40.120Z,16.49
2023-04-19T11:41:40.102Z,16.51
2023-04-19T11:42:40.103Z,16.64
2023-04-19T11:43:40.112Z,16.84
2023-04-19T11:44:40.075Z,16.76
2023-04-19T11:45:40.491Z,16.78
2023-04-19T11:46:40.114Z,16.86
2023-04-19T11:47:40.124Z,16.93
2023-04-19T11:48:40.046Z,16.91
2023-04-19T11:49:40.014Z,16.71
2023-04-19T11:50:40.075Z,16.57
2023-04-19T11:51:39.996Z,16.42
2023-04-19T11:52:39.985Z,16.50
2023-04-19T11:53:40.005Z,16.41
2023-04-19T11:54:39.998Z,16.58
2023-04-19T11:55:39.950Z,16.65
2023-04-19T11:56:39.943Z,16.86
2023-04-19T11:57:41.597Z,17.02
2023-04-19T11:58:40.022Z,16.91
2023-04-19T11:59:39.919Z,16.93
2023-04-19T12:00:39.905Z,17.04
2023-04-19T12:01:39.882Z,16.96
2023-04-19T12:02:40.156Z,16.68
2023-04-19T12:03:40.202Z,16.60
2023-04-19T12:04:40.358Z,16.65
2023-04-19T12:05:40.030Z,16.72
2023-04-19T12:06:39.828Z,16.41
2023-04-19T12:07:39.834Z,16.38
2023-04-19T12:08:39.813Z,16.53
2023-04-19T12:09:39.826Z,16.60
2023-04-19T12:10:39.811Z,16.87
2023-04-19T12:11:39.851Z,16.89
2023-04-19T12:12:39.791Z,17.09
2023-04-19T12:13:39.789Z,16.93
2023-04-19T12:14:39.835Z,16.99
2023-04-19T12:15:39.728Z,16.83
2023-04-19T12:16:39.863Z,16.69
2023-04-19T12:17:47.724Z,16.39
2023-04-19T12:18:40.691Z,16.43
2023-04-19T12:19:39.732Z,16.49
2023-04-19T12:20:39.668Z,16.32
2023-04-19T12:21:39.655Z,16.50
2023-04-19T12:22:39.651Z,16.39
2023-04-19T12:23:39.632Z,16.36
2023-04-19T12:24:39.652Z,16.12
2023-04-19T12:25:39.611Z,16.08
2023-04-19T12:26:39.595Z,16.10
2023-04-19T12:27:39.592Z,15.94
2023-04-19T12:28:39.586Z,15.94
2023-04-19T12:29:39.583Z,16.12
2023-04-19T12:30:39.599Z,16.29
2023-04-19T12:31:39.576Z,16.33
2023-04-19T12:32:39.581Z,16.51
2023-04-19T12:33:39.513Z,16.41
2023-04-19T12:34:39.502Z,16.23
2023-04-19T12:35:39.518Z,15.75
2023-04-19T12:36:39.485Z,15.65
2023-04-19T12:37:39.496Z,15.57
2023-04-19T12:38:39.458Z,15.61
2023-04-19T12:39:39.445Z,15.83
2023-04-19T12:40:39.430Z,15.92
2023-04-19T12:41:39.428Z,15.97
2023-04-19T12:42:39.419Z,15.79
2023-04-19T12:43:39.428Z,16.02
2023-04-19T12:44:39.389Z,16.21
2023-04-19T12:45:39.414Z,16.23
2023-04-19T12:46:39.663Z,16.12
2023-04-19T12:47:39.363Z,16.10
2023-04-19T12:48:39.339Z,16.31
2023-04-19T12:49:39.342Z,16.46
2023-04-19T12:50:39.319Z,16.47
2023-04-19T12:51:39.356Z,16.53
2023-04-19T12:52:39.294Z,16.64
2023-04-19T12:53:39.288Z,16.66
2023-04-19T12:54:39.271Z,16.81
2023-04-19T12:55:39.276Z,16.89
2023-04-19T12:56:39.252Z,16.91
2023-04-19T12:57:39.249Z,16.57
2023-04-19T12:58:39.241Z,16.49
2023-04-19T12:59:39.225Z,16.35
2023-04-19T13:00:39.201Z,16.32
2023-04-19T13:01:39.345Z,16.43
2023-04-19T13:02:39.283Z,16.60
2023-04-19T13:03:39.321Z,16.61
2023-04-19T13:04:39.222Z,16.86
2023-04-19T13:05:39.146Z,16.81
2023-04-19T13:06:39.129Z,16.64
2023-04-19T13:07:39.301Z,16.42
2023-04-19T13:08:45.406Z,16.49